createdAt,value
2023-02-14T00:01:51.725Z,77.90
2023-02-14T00:04:21.398Z,82.33
2023-02-14T00:06:50.048Z,71.63
2023-02-14T00:09:20.715Z,75.47
2023-02-14T00:11:49.157Z,73.90
2023-02-14T00:14:36.065Z,77.60
2023-02-14T00:17:05.826Z,71.37
2023-02-14T00:19:34.817Z,67.17
2023-02-14T00:22:03.263Z,70.30
2023-02-14T00:24:31.666Z,72.20
2023-02-14T00:27:00.361Z,71.50
2023-02-14T00:29:30.963Z,63.80
2023-02-14T00:31:59.344Z,71.50
2023-02-14T00:34:29.839Z,71.07
2023-02-14T00:36:58.878Z,70.40
2023-02-14T00:39:27.278Z,76.50
2023-02-14T00:41:55.604Z,75.67
2023-02-14T00:44:24.084Z,66.13
2023-02-14T00:46:52.414Z,77.90
2023-02-14T00:49:20.711Z,72.00
2023-02-14T00:51:50.397Z,75.33
2023-02-14T00:54:18.716Z,69.17
2023-02-14T00:56:47.100Z,72.13
2023-02-14T00:59:15.436Z,72.97
2023-02-14T01:01:43.759Z,66.97
2023-02-14T01:04:12.280Z,69.00
2023-02-14T01:06:40.682Z,69.87
2023-02-14T01:09:10.394Z,74.77
2023-02-14T01:11:40.536Z,69.27
2023-02-14T01:14:08.893Z,72.47
2023-02-14T01:16:37.891Z,70.53
2023-02-14T01:19:06.275Z,64.53
2023-02-14T01:21:35.402Z,72.37
2023-02-14T01:24:05.791Z,65.67
2023-02-14T01:26:36.434Z,68.83
2023-02-14T01:29:05.835Z,74.00
2023-02-14T01:31:36.223Z,73.13
2023-02-14T01:34:05.184Z,75.80
2023-02-14T01:36:35.466Z,69.07
2023-02-14T01:39:05.828Z,75.57
2023-02-14T01:41:37.748Z,72.43
2023-02-14T01:44:08.620Z,73.55
2023-02-14T01:46:38.673Z,66.37
2023-02-14T01:49:10.789Z,73.20
2023-02-14T01:51:42.342Z,64.47
2023-02-14T01:54:11.738Z,65.73
2023-02-14T01:56:44.730Z,63.53
2023-02-14T01:59:16.933Z,66.57
2023-02-14T02:01:46.337Z,69.00
2023-02-14T02:04:18.948Z,65.43
2023-02-14T02:06:50.845Z,78.07
2023-02-14T02:09:22.941Z,67.13
2023-02-14T02:11:52.646Z,73.27
2023-02-14T02:14:23.374Z,65.23
2023-02-14T02:17:08.364Z,74.60
2023-02-14T02:20:18.260Z,67.00
2023-02-14T02:23:26.169Z,72.07
2023-02-14T02:26:26.944Z,79.00
2023-02-14T02:29:28.358Z,61.63
2023-02-14T02:32:30.566Z,68.20
2023-02-14T02:35:26.005Z,62.47
2023-02-14T02:38:15.875Z,67.93
2023-02-14T02:40:50.944Z,65.87
2023-02-14T02:43:32.195Z,67.73
2023-02-14T02:46:22.475Z,71.27
2023-02-14T02:49:00.760Z,72.73
2023-02-14T02:51:55.716Z,69.73
2023-02-14T02:54:32.641Z,64.63
2023-02-14T02:57:04.605Z,72.83
2023-02-14T02:59:36.049Z,63.30
2023-02-14T03:02:08.941Z,64.17
2023-02-14T03:04:55.316Z,70.47
2023-02-14T03:07:36.651Z,81.63
2023-02-14T03:10:10.610Z,75.70
2023-02-14T03:13:05.644Z,71.67
2023-02-14T03:15:47.959Z,66.57
2023-02-14T03:18:44.713Z,64.70
2023-02-14T03:21:25.148Z,70.20
2023-02-14T03:23:59.198Z,71.60
2023-02-14T03:26:34.534Z,73.60
2023-02-14T03:29:13.645Z,71.30
2023-02-14T03:31:51.843Z,75.60
2023-02-14T03:34:24.806Z,73.37
2023-02-14T03:37:00.202Z,70.03
2023-02-14T03:39:34.526Z,65.93
2023-02-14T03:42:08.671Z,70.70
2023-02-14T03:44:39.106Z,69.37
2023-02-14T03:47:11.281Z,75.00
2023-02-14T03:49:43.633Z,68.13
2023-02-14T03:52:13.536Z,72.80
2023-02-14T03:54:44.177Z,70.70
2023-02-14T03:57:18.285Z,64.07
2023-02-14T03:59:46.654Z,66.47
2023-02-14T04:02:18.715Z,70.37
2023-02-14T04:04:49.354Z,74.70
2023-02-14T04:07:20.579Z,74.70
2023-02-14T04:09:50.752Z,64.43
2023-02-14T04:12:32.328Z,69.30
2023-02-14T04:15:04.323Z,64.57
2023-02-14T04:17:50.362Z,63.27
2023-02-14T04:20:18.781Z,67.17
2023-02-14T04:22:47.457Z,67.43
2023-02-14T04:25:17.324Z,68.83
2023-02-14T04:27:45.973Z,68.40
2023-02-14T04:30:15.280Z,74.80
2023-02-14T04:32:43.574Z,69.13
2023-02-14T04:35:12.321Z,71.13
2023-02-14T04:37:40.694Z,73.27
2023-02-14T04:40:10.367Z,63.50
2023-02-14T04:42:40.170Z,69.10
2023-02-14T04:45:09.139Z,68.83
2023-02-14T04:47:37.615Z,70.90
2023-02-14T04:50:06.710Z,70.57
2023-02-14T04:52:35.108Z,71.90
2023-02-14T04:55:04.501Z,70.40
2023-02-14T04:57:33.005Z,72.07
2023-02-14T05:00:03.001Z,69.63
2023-02-14T05:02:31.276Z,70.60
2023-02-14T05:04:59.587Z,74.07
2023-02-14T05:07:28.156Z,70.43
2023-02-14T05:09:56.522Z,74.97
2023-02-14T05:12:24.916Z,73.10
2023-02-14T05:14:53.296Z,80.40
2023-02-14T05:17:23.073Z,60.47
2023-02-14T05:19:51.388Z,68.17
2023-02-14T05:22:19.765Z,73.27
2023-02-14T05:24:48.119Z,73.03
2023-02-14T05:27:16.540Z,71.50
2023-02-14T05:29:44.876Z,72.27
2023-02-14T05:32:13.216Z,74.60
2023-02-14T05:34:42.949Z,71.37
2023-02-14T05:37:11.357Z,78.27
2023-02-14T05:39:39.772Z,69.53
2023-02-14T05:44:36.122Z,72.97
2023-02-14T05:47:04.429Z,84.60
2023-02-14T05:49:32.745Z,75.93
2023-02-14T05:52:02.502Z,77.07
2023-02-14T05:54:30.837Z,71.47
2023-02-14T05:56:59.225Z,89.27
2023-02-14T05:59:27.613Z,80.70
2023-02-14T06:01:55.977Z,73.77
2023-02-14T06:04:24.461Z,75.87
2023-02-14T06:06:52.827Z,75.43
2023-02-14T06:09:22.616Z,76.63
2023-02-14T06:11:50.951Z,79.67
2023-02-14T06:14:19.639Z,80.40
2023-02-14T06:16:48.029Z,76.90
2023-02-14T06:19:16.432Z,75.17
2023-02-14T06:21:44.792Z,79.90
2023-02-14T06:24:13.877Z,76.07
2023-02-14T06:26:43.640Z,80.30
2023-02-14T06:29:12.046Z,80.53
2023-02-14T06:31:40.612Z,82.23
2023-02-14T06:34:09.166Z,86.37
2023-02-14T06:36:37.542Z,78.93
2023-02-14T06:39:06.171Z,82.73
2023-02-14T06:41:34.484Z,87.13
2023-02-14T06:44:04.235Z,94.07
2023-02-14T06:46:32.591Z,92.93
2023-02-14T06:49:00.911Z,96.93
2023-02-14T06:51:29.173Z,97.73
2023-02-14T06:53:57.518Z,96.80
2023-02-14T06:56:25.829Z,88.23
2023-02-14T06:58:54.244Z,101.20
2023-02-14T07:01:24.173Z,103.70
2023-02-14T07:03:52.425Z,99.60
2023-02-14T07:06:20.770Z,105.23
2023-02-14T07:08:49.273Z,98.20
2023-02-14T07:11:17.624Z,97.10
2023-02-14T07:13:47.998Z,103.17
2023-02-14T07:16:17.549Z,94.90
2023-02-14T07:18:47.677Z,103.43
2023-02-14T07:21:16.033Z,112.90
2023-02-14T07:23:46.442Z,125.90
2023-02-14T07:26:18.160Z,111.40
2023-02-14T07:28:46.790Z,114.47
2023-02-14T07:31:15.257Z,109.23
2023-02-14T07:33:43.574Z,107.77
2023-02-14T07:36:13.573Z,113.23
2023-02-14T07:38:42.005Z,102.97
2023-02-14T07:41:10.311Z,100.83
2023-02-14T07:43:39.814Z,94.60
2023-02-14T07:46:08.639Z,107.47
2023-02-14T07:48:39.345Z,103.93
2023-02-14T07:51:07.615Z,113.78
2023-02-14T07:53:37.322Z,102.43
2023-02-14T07:56:05.921Z,103.80
2023-02-14T07:58:34.299Z,111.63
2023-02-14T08:01:02.731Z,101.57
2023-02-14T08:03:31.197Z,100.00
2023-02-14T08:05:59.545Z,93.37
2023-02-14T08:08:29.256Z,93.57
2023-02-14T08:10:59.641Z,104.03
2023-02-14T08:13:27.208Z,84.13
2023-02-14T08:16:09.693Z,88.63
2023-02-14T08:18:40.376Z,87.73
2023-02-14T08:21:10.736Z,76.53
2023-02-14T08:23:39.499Z,85.97
2023-02-14T08:26:09.458Z,86.97
2023-02-14T08:28:37.765Z,84.57
2023-02-14T08:31:06.823Z,93.37
2023-02-14T08:33:35.192Z,79.53
2023-02-14T08:36:03.975Z,72.17
2023-02-14T08:38:32.231Z,78.03
2023-02-14T08:41:07.474Z,75.67
2023-02-14T08:43:38.832Z,73.77
2023-02-14T08:46:07.317Z,82.90
2023-02-14T08:48:39.188Z,80.27
2023-02-14T08:51:08.757Z,70.77
2023-02-14T08:53:37.482Z,75.27
2023-02-14T08:56:07.084Z,65.87
2023-02-14T08:58:38.384Z,63.77
2023-02-14T09:01:10.256Z,66.77
2023-02-14T09:03:39.154Z,62.13
2023-02-14T09:06:09.195Z,58.77
2023-02-14T09:08:39.888Z,62.47
2023-02-14T09:11:09.773Z,55.20
2023-02-14T09:13:46.839Z,60.70
2023-02-14T09:16:17.694Z,60.37
2023-02-14T09:18:46.671Z,51.67
2023-02-14T09:21:17.533Z,51.27
2023-02-14T09:23:48.945Z,39.53
2023-02-14T09:26:18.251Z,55.90
2023-02-14T09:28:48.329Z,49.97
2023-02-14T09:31:21.338Z,48.37
2023-02-14T09:33:50.913Z,42.90
2023-02-14T09:36:37.032Z,42.07
2023-02-14T09:39:05.498Z,40.73
2023-02-14T09:41:58.246Z,40.47
2023-02-14T09:44:32.876Z,37.80
2023-02-14T09:47:07.440Z,41.93
2023-02-14T09:49:39.857Z,42.63
2023-02-14T09:52:14.533Z,39.43
2023-02-14T09:54:47.598Z,39.03
2023-02-14T09:57:24.351Z,37.97
2023-02-14T09:59:58.587Z,32.97
2023-02-14T10:02:40.546Z,39.10
2023-02-14T10:05:15.795Z,35.90
2023-02-14T10:07:58.917Z,35.43
2023-02-14T10:10:32.896Z,35.87
2023-02-14T10:13:08.898Z,35.23
2023-02-14T10:15:43.804Z,39.07
2023-02-14T10:18:18.022Z,38.10
2023-02-14T10:20:49.776Z,30.93
2023-02-14T10:23:33.685Z,32.37
2023-02-14T10:26:03.750Z,38.97
2023-02-14T10:28:35.419Z,41.80
2023-02-14T10:31:20.779Z,41.87
2023-02-14T10:33:57.096Z,34.30
2023-02-14T10:36:53.363Z,32.57
2023-02-14T10:39:46.103Z,32.93
2023-02-14T10:42:22.667Z,33.40
2023-02-14T10:44:58.852Z,33.07
2023-02-14T10:47:41.597Z,31.93
2023-02-14T10:50:19.087Z,29.57
2023-02-14T10:53:08.661Z,29.03
2023-02-14T10:55:45.826Z,30.30
2023-02-14T10:58:17.311Z,30.10
2023-02-14T11:00:54.346Z,29.70
2023-02-14T11:03:25.184Z,26.83
2023-02-14T11:05:53.668Z,28.67
2023-02-14T11:08:28.052Z,31.03
2023-02-14T11:11:02.675Z,27.53
2023-02-14T11:13:34.470Z,28.93
2023-02-14T11:16:04.707Z,27.63
2023-02-14T11:18:36.274Z,25.00
2023-02-14T11:21:08.011Z,26.00
2023-02-14T11:23:39.660Z,24.13
2023-02-14T11:26:17.293Z,23.67
2023-02-14T11:28:52.273Z,23.33
2023-02-14T11:31:30.186Z,20.73
2023-02-14T11:34:02.939Z,22.17
2023-02-14T11:36:33.824Z,21.33
2023-02-14T11:39:08.819Z,20.23
2023-02-14T11:41:56.365Z,19.90
2023-02-14T11:44:27.164Z,21.23
2023-02-14T11:46:57.704Z,17.93
2023-02-14T11:49:31.162Z,22.27
2023-02-14T11:52:01.269Z,20.02
2023-02-14T11:54:34.824Z,21.50
2023-02-14T11:57:08.618Z,18.67
2023-02-14T11:59:42.160Z,24.83
2023-02-14T12:02:24.499Z,19.30
2023-02-14T12:04:57.212Z,16.90
2023-02-14T12:07:29.842Z,17.27
2023-02-14T12:10:24.315Z,15.27
2023-02-14T12:12:55.845Z,14.57
2023-02-14T12:15:37.859Z,18.07
2023-02-14T12:18:39.787Z,19.70
2023-02-14T12:21:40.395Z,21.17
2023-02-14T12:24:21.597Z,22.70
2023-02-14T12:26:59.088Z,18.70
2023-02-14T12:29:34.280Z,20.80
2023-02-14T12:32:34.062Z,23.83
2023-02-14T12:35:05.475Z,24.87
2023-02-14T12:37:48.727Z,22.67
2023-02-14T12:40:29.228Z,23.27
2023-02-14T12:43:24.110Z,22.80
2023-02-14T12:46:19.560Z,28.77
2023-02-14T12:49:05.946Z,21.47
2023-02-14T12:51:42.001Z,19.50
2023-02-14T12:54:29.550Z,21.47
2023-02-14T12:57:04.245Z,23.53
2023-02-14T12:59:45.098Z,24.53
2023-02-14T13:02:48.583Z,17.90
2023-02-14T13:05:23.933Z,16.63
2023-02-14T13:08:12.769Z,15.87
2023-02-14T13:10:57.156Z,17.30
2023-02-14T13:13:40.339Z,15.87
2023-02-14T13:16:18.483Z,15.63
2023-02-14T13:18:55.127Z,18.07
2023-02-14T13:21:27.358Z,16.77
2023-02-14T13:24:02.101Z,18.30
2023-02-14T13:26:36.793Z,21.53
2023-02-14T13:29:08.160Z,21.50
2023-02-14T13:31:37.835Z,19.00
2023-02-14T13:34:16.788Z,20.30
2023-02-14T13:36:47.487Z,21.47
2023-02-14T13:39:24.571Z,22.10
2023-02-14T13:41:54.355Z,22.15
2023-02-14T13:44:53.255Z,22.27
2023-02-14T13:47:22.901Z,19.60
2023-02-14T13:49:56.540Z,23.33
2023-02-14T13:52:46.858Z,22.33
2023-02-14T13:55:20.335Z,18.97
2023-02-14T13:58:02.756Z,21.52
2023-02-14T14:00:39.592Z,18.90
2023-02-14T14:03:13.396Z,22.00
2023-02-14T14:06:06.899Z,17.70
2023-02-14T14:08:47.420Z,21.40
2023-02-14T14:11:57.142Z,19.33
2023-02-14T14:14:39.712Z,18.35
2023-02-14T14:17:27.783Z,17.63
2023-02-14T14:19:58.020Z,20.63
2023-02-14T14:22:27.401Z,18.08
2023-02-14T14:24:58.516Z,16.70
2023-02-14T14:27:31.966Z,17.92
2023-02-14T14:30:03.487Z,18.17
2023-02-14T14:32:34.365Z,17.67
2023-02-14T14:35:05.263Z,19.35
2023-02-14T14:37:35.755Z,19.63
2023-02-14T14:40:06.456Z,22.63
2023-02-14T14:42:38.585Z,16.33
2023-02-14T14:45:23.590Z,19.60
2023-02-14T14:47:54.579Z,21.23
2023-02-14T14:50:25.271Z,29.87
2023-02-14T14:52:55.888Z,21.40
2023-02-14T14:55:27.673Z,20.80
2023-02-14T14:57:58.551Z,20.70
2023-02-14T15:00:29.882Z,23.17
2023-02-14T15:03:01.301Z,22.67
2023-02-14T15:05:32.721Z,24.40
2023-02-14T15:08:15.434Z,21.57
2023-02-14T15:10:44.734Z,21.73
2023-02-14T15:13:34.205Z,21.30
2023-02-14T15:16:06.425Z,30.33
2023-02-14T15:18:34.764Z,17.77
2023-02-14T15:21:04.910Z,23.37
2023-02-14T15:23:33.326Z,20.07
2023-02-14T15:26:02.199Z,22.57
2023-02-14T15:28:33.258Z,21.57
2023-02-14T15:31:06.158Z,22.63
2023-02-14T15:33:35.425Z,25.07
2023-02-14T15:36:06.299Z,25.53
2023-02-14T15:38:36.549Z,25.37
2023-02-14T15:41:05.278Z,26.60
2023-02-14T15:43:36.255Z,21.80
2023-02-14T15:46:19.742Z,22.93
2023-02-14T15:48:48.567Z,24.63
2023-02-14T15:51:20.994Z,22.87
2023-02-14T15:53:53.914Z,23.77
2023-02-14T15:56:26.201Z,28.20
2023-02-14T15:59:01.367Z,25.60
2023-02-14T16:01:32.222Z,24.40
2023-02-14T16:04:03.072Z,23.03
2023-02-14T16:06:37.321Z,25.87
2023-02-14T16:09:08.589Z,26.87
2023-02-14T16:11:38.885Z,23.53
2023-02-14T16:14:31.342Z,24.60
2023-02-14T16:17:04.887Z,30.90
2023-02-14T16:19:38.362Z,25.23
2023-02-14T16:22:08.293Z,29.67
2023-02-14T16:24:38.050Z,35.40
2023-02-14T16:27:08.076Z,26.30
2023-02-14T16:29:37.741Z,30.13
2023-02-14T16:32:18.459Z,29.83
2023-02-14T16:34:50.689Z,30.47
2023-02-14T16:37:22.391Z,28.30
2023-02-14T16:39:52.391Z,28.07
2023-02-14T16:42:20.788Z,34.90
2023-02-14T16:44:49.211Z,30.70
2023-02-14T16:47:21.684Z,26.53
2023-02-14T16:49:50.745Z,28.30
2023-02-14T16:52:23.816Z,28.77
2023-02-14T16:54:52.356Z,30.30
2023-02-14T16:57:22.729Z,24.83
2023-02-14T16:59:51.892Z,34.40
2023-02-14T17:02:21.991Z,27.27
2023-02-14T17:04:50.481Z,31.17
2023-02-14T17:07:19.100Z,30.67
2023-02-14T17:09:51.470Z,32.60
2023-02-14T17:12:23.254Z,27.67
2023-02-14T17:14:55.798Z,38.13
2023-02-14T17:17:26.238Z,30.50
2023-02-14T17:19:54.747Z,32.40
2023-02-14T17:22:23.194Z,32.67
2023-02-14T17:24:51.564Z,28.00
2023-02-14T17:27:19.845Z,34.05
2023-02-14T17:29:51.560Z,37.43
2023-02-14T17:32:20.020Z,27.67
2023-02-14T17:34:50.134Z,43.37
2023-02-14T17:37:19.445Z,33.13
2023-02-14T17:39:47.761Z,42.97
2023-02-14T17:42:16.127Z,34.80
2023-02-14T17:44:44.797Z,47.47
2023-02-14T17:47:14.856Z,43.33
2023-02-14T17:49:43.282Z,37.67
2023-02-14T17:52:12.968Z,49.33
2023-02-14T17:54:41.448Z,51.93
2023-02-14T17:57:13.704Z,62.17
2023-02-14T17:59:45.484Z,75.23
2023-02-14T18:02:14.408Z,66.43
2023-02-14T18:04:51.666Z,69.60
2023-02-14T18:07:32.013Z,83.00
2023-02-14T18:10:00.422Z,81.40
2023-02-14T18:12:31.029Z,109.70
2023-02-14T18:15:06.012Z,108.83
2023-02-14T18:17:34.367Z,125.10
2023-02-14T18:20:06.287Z,106.80
2023-02-14T18:22:46.127Z,114.47
2023-02-14T18:25:16.486Z,109.43
2023-02-14T18:27:49.031Z,102.47
2023-02-14T18:30:24.240Z,98.70
2023-02-14T18:33:02.950Z,95.10
2023-02-14T18:35:35.419Z,87.57
2023-02-14T18:38:14.929Z,89.67
2023-02-14T18:40:43.452Z,90.23
2023-02-14T18:43:13.758Z,73.63
2023-02-14T18:45:47.021Z,87.87
2023-02-14T18:48:27.044Z,61.27
2023-02-14T18:51:01.759Z,76.83
2023-02-14T18:53:36.271Z,88.50
2023-02-14T18:56:16.476Z,81.97
2023-02-14T18:58:48.100Z,83.83
2023-02-14T19:01:23.870Z,97.23
2023-02-14T19:03:59.717Z,102.07
2023-02-14T19:06:32.633Z,105.83
2023-02-14T19:09:03.657Z,104.17
2023-02-14T19:11:33.040Z,104.17
2023-02-14T19:14:03.389Z,102.50
2023-02-14T19:16:34.351Z,101.10
2023-02-14T19:19:03.022Z,98.87
2023-02-14T19:21:33.726Z,102.03
2023-02-14T19:24:06.925Z,102.90
2023-02-14T19:26:40.429Z,99.00
2023-02-14T19:29:11.781Z,87.83
2023-02-14T19:31:43.198Z,96.03
2023-02-14T19:34:17.264Z,110.43
2023-02-14T19:36:45.728Z,115.63
2023-02-14T19:39:15.806Z,124.50
2023-02-14T19:41:44.226Z,97.17
2023-02-14T19:44:14.463Z,97.80
2023-02-14T19:46:43.805Z,102.07
2023-02-14T19:49:14.593Z,98.20
2023-02-14T19:51:42.862Z,103.07
2023-02-14T19:54:12.633Z,101.20
2023-02-14T19:56:44.720Z,97.63
2023-02-14T19:59:15.343Z,92.03
2023-02-14T20:01:46.370Z,86.80
2023-02-14T20:04:17.623Z,98.00
2023-02-14T20:06:46.771Z,90.13
2023-02-14T20:09:16.270Z,87.53
2023-02-14T20:11:50.171Z,87.83
2023-02-14T20:14:19.875Z,81.93
2023-02-14T20:16:49.220Z,75.90
2023-02-14T20:19:19.683Z,84.33
2023-02-14T20:21:49.486Z,76.90
2023-02-14T20:24:20.340Z,86.70
2023-02-14T20:26:51.057Z,73.50
2023-02-14T20:29:20.532Z,67.07
2023-02-14T20:31:50.865Z,67.97
2023-02-14T20:34:20.522Z,56.07
2023-02-14T20:36:53.183Z,60.30
2023-02-14T20:39:23.626Z,59.23
2023-02-14T20:41:54.075Z,57.73
2023-02-14T20:44:22.940Z,51.40
2023-02-14T20:46:53.061Z,54.40
2023-02-14T20:49:21.596Z,58.60
2023-02-14T20:51:51.037Z,53.30
2023-02-14T20:54:19.974Z,52.70
2023-02-14T20:56:49.001Z,47.23
2023-02-14T20:59:24.383Z,50.17
2023-02-14T21:01:52.733Z,53.73
2023-02-14T21:04:21.087Z,55.20
2023-02-14T21:06:49.760Z,53.63
2023-02-14T21:09:20.766Z,51.10
2023-02-14T21:11:49.675Z,48.27
2023-02-14T21:14:20.860Z,47.30
2023-02-14T21:16:49.254Z,47.33
2023-02-14T21:19:17.707Z,44.57
2023-02-14T21:21:46.081Z,45.20
2023-02-14T21:24:16.067Z,39.07
2023-02-14T21:26:44.821Z,48.13
2023-02-14T21:29:13.433Z,49.13
2023-02-14T21:31:43.272Z,42.40
2023-02-14T21:34:12.038Z,45.70
2023-02-14T21:36:40.339Z,44.17
2023-02-14T21:39:08.721Z,47.77
2023-02-14T21:41:37.950Z,40.63
2023-02-14T21:44:07.460Z,44.23
2023-02-14T21:46:38.697Z,44.97
2023-02-14T21:49:25.826Z,38.53
2023-02-14T21:51:54.104Z,44.47
2023-02-14T21:54:22.545Z,39.90
2023-02-14T21:56:50.965Z,43.00
2023-02-14T21:59:19.587Z,40.77
2023-02-14T22:01:47.908Z,48.77
2023-02-14T22:04:17.633Z,44.93
2023-02-14T22:06:45.949Z,35.10
2023-02-14T22:09:17.524Z,43.10
2023-02-14T22:11:47.581Z,43.47
2023-02-14T22:14:16.314Z,40.63
2023-02-14T22:16:44.586Z,35.13
2023-02-14T22:19:15.513Z,41.57
2023-02-14T22:21:45.585Z,41.07
2023-02-14T22:24:13.958Z,39.83
2023-02-14T22:26:42.392Z,45.87
2023-02-14T22:29:12.458Z,44.37
2023-02-14T22:31:42.911Z,51.37
2023-02-14T22:34:13.376Z,49.53
2023-02-14T22:36:42.063Z,40.67
2023-02-14T22:39:13.699Z,49.10
2023-02-14T22:41:42.058Z,52.00
2023-02-14T22:44:10.976Z,46.03
2023-02-14T22:46:39.405Z,43.73
2023-02-14T22:49:08.516Z,42.50
2023-02-14T22:51:38.463Z,43.03
2023-02-14T22:54:10.003Z,44.00
2023-02-14T22:56:42.593Z,43.30
2023-02-14T22:59:18.298Z,40.90
2023-02-14T23:01:47.571Z,51.77
2023-02-14T23:04:17.426Z,40.03
2023-02-14T23:06:45.754Z,44.70
2023-02-14T23:09:15.321Z,46.47
2023-02-14T23:11:47.126Z,44.07
2023-02-14T23:14:34.391Z,48.50
2023-02-14T23:17:21.056Z,51.77
2023-02-14T23:20:06.928Z,48.47
2023-02-14T23:22:37.526Z,43.40
2023-02-14T23:25:08.032Z,46.33
2023-02-14T23:27:40.805Z,43.20
2023-02-14T23:30:11.524Z,47.00
2023-02-14T23:32:40.067Z,53.83
2023-02-14T23:35:08.648Z,49.47
2023-02-14T23:37:36.992Z,47.90
2023-02-14T23:40:05.638Z,52.20
2023-02-14T23:42:33.954Z,51.13
2023-02-14T23:45:17.383Z,53.27
2023-02-14T23:47:45.688Z,57.40
2023-02-14T23:50:14.043Z,57.97
2023-02-14T23:52:42.487Z,50.97
2023-02-14T23:55:11.268Z,54.00
2023-02-14T23:57:39.671Z,54.90
